createdAt,value
2022-09-16T00:01:29.950Z,16.16
2022-09-16T00:03:59.632Z,16.39
2022-09-16T00:06:30.799Z,16.46
2022-09-16T00:09:02.001Z,17.31
2022-09-16T00:11:34.389Z,16.58
2022-09-16T00:14:03.610Z,16.23
2022-09-16T00:16:32.412Z,16.09
2022-09-16T00:19:03.390Z,16.17
2022-09-16T00:21:32.256Z,16.05
2022-09-16T00:24:00.509Z,16.15
2022-09-16T00:26:29.890Z,15.99
2022-09-16T00:28:58.132Z,15.94
2022-09-16T00:31:26.414Z,15.99
2022-09-16T00:33:54.652Z,15.92
2022-09-16T00:36:24.309Z,15.61
2022-09-16T00:38:54.911Z,15.27
2022-09-16T00:41:26.988Z,15.56
2022-09-16T00:43:59.027Z,14.87
2022-09-16T00:46:40.045Z,15.97
2022-09-16T00:49:16.523Z,16.17
2022-09-16T00:51:48.150Z,15.61
2022-09-16T00:54:19.912Z,15.91
2022-09-16T00:56:52.809Z,16.17
2022-09-16T00:59:27.171Z,15.07
2022-09-16T01:01:57.909Z,15.20
2022-09-16T01:04:29.668Z,16.04
2022-09-16T01:06:59.417Z,15.62
2022-09-16T01:09:29.286Z,15.43
2022-09-16T01:11:57.576Z,15.56
2022-09-16T01:14:45.346Z,15.94
2022-09-16T01:17:23.305Z,15.40
2022-09-16T01:20:51.841Z,15.40
2022-09-16T01:24:32.240Z,15.49
2022-09-16T01:27:35.338Z,15.83
2022-09-16T01:30:51.883Z,16.27
2022-09-16T01:33:35.779Z,15.59
2022-09-16T01:36:28.966Z,14.62
2022-09-16T01:39:23.166Z,14.80
2022-09-16T01:42:10.546Z,15.41
2022-09-16T01:44:46.960Z,15.54
2022-09-16T01:47:28.297Z,15.48
2022-09-16T01:50:07.385Z,15.62
2022-09-16T01:52:44.431Z,15.45
2022-09-16T01:55:22.192Z,16.19
2022-09-16T01:57:56.472Z,15.67
2022-09-16T02:00:25.029Z,15.95
2022-09-16T02:02:59.724Z,15.61
2022-09-16T02:05:34.395Z,15.25
2022-09-16T02:08:09.632Z,14.91
2022-09-16T02:10:42.843Z,15.24
2022-09-16T02:13:19.411Z,15.48
2022-09-16T02:15:51.093Z,15.50
2022-09-16T02:18:27.404Z,15.77
2022-09-16T02:20:59.165Z,15.78
2022-09-16T02:23:33.393Z,15.00
2022-09-16T02:26:04.144Z,15.88
2022-09-16T02:28:36.219Z,16.32
2022-09-16T02:31:10.947Z,15.67
2022-09-16T02:33:46.370Z,16.46
2022-09-16T02:36:21.192Z,16.66
2022-09-16T02:38:54.605Z,16.15
2022-09-16T02:41:23.774Z,16.24
2022-09-16T02:43:52.104Z,16.62
2022-09-16T02:46:27.889Z,16.80
2022-09-16T02:49:10.842Z,16.98
2022-09-16T02:51:48.027Z,15.18
2022-09-16T02:54:25.113Z,15.61
2022-09-16T02:56:55.733Z,16.70
2022-09-16T02:59:25.362Z,16.39
2022-09-16T03:01:53.785Z,15.76
2022-09-16T03:04:23.497Z,14.90
2022-09-16T03:06:51.990Z,15.22
2022-09-16T03:09:23.899Z,14.62
2022-09-16T03:12:29.412Z,15.52
2022-09-16T03:15:27.455Z,14.89
2022-09-16T03:18:41.038Z,15.32
2022-09-16T03:21:18.505Z,15.75
2022-09-16T03:23:57.832Z,15.51
2022-09-16T03:26:36.242Z,16.26
2022-09-16T03:29:14.359Z,15.65
2022-09-16T03:31:51.529Z,14.83
2022-09-16T03:34:24.679Z,15.12
2022-09-16T03:36:59.565Z,15.23
2022-09-16T03:39:27.883Z,15.23
2022-09-16T03:42:01.068Z,15.37
2022-09-16T03:44:34.607Z,14.82
2022-09-16T03:47:03.253Z,15.28
2022-09-16T03:49:31.520Z,15.64
2022-09-16T03:52:01.327Z,15.37
2022-09-16T03:54:29.681Z,14.89
2022-09-16T03:56:57.926Z,15.02
2022-09-16T03:59:26.212Z,14.63
2022-09-16T04:01:54.584Z,14.78
2022-09-16T04:04:22.843Z,15.13
2022-09-16T04:06:51.137Z,15.42
2022-09-16T04:09:20.836Z,15.44
2022-09-16T04:11:49.128Z,15.64
2022-09-16T04:14:17.545Z,15.71
2022-09-16T04:16:45.749Z,15.43
2022-09-16T04:19:15.188Z,15.14
2022-09-16T04:21:43.710Z,14.71
2022-09-16T04:24:13.396Z,15.03
2022-09-16T04:26:43.248Z,14.98
2022-09-16T04:29:11.775Z,13.76
2022-09-16T04:31:39.996Z,14.77
2022-09-16T04:34:08.321Z,14.59
2022-09-16T04:36:36.516Z,15.04
2022-09-16T04:39:05.073Z,15.49
2022-09-16T04:41:33.789Z,16.08
2022-09-16T04:44:04.125Z,15.81
2022-09-16T04:46:33.555Z,15.87
2022-09-16T04:49:03.685Z,14.70
2022-09-16T04:51:32.300Z,16.04
2022-09-16T04:54:01.510Z,16.46
2022-09-16T04:56:32.965Z,16.93
2022-09-16T04:59:04.909Z,16.13
2022-09-16T05:01:36.281Z,15.25
2022-09-16T05:04:07.852Z,15.19
2022-09-16T05:06:39.500Z,15.14
2022-09-16T05:09:08.397Z,15.09
2022-09-16T05:11:39.439Z,14.96
2022-09-16T05:14:17.926Z,15.26
2022-09-16T05:16:46.909Z,14.98
2022-09-16T05:19:16.473Z,14.36
2022-09-16T05:21:44.955Z,15.47
2022-09-16T05:24:15.162Z,16.54
2022-09-16T05:26:44.902Z,15.68
2022-09-16T05:29:16.938Z,14.78
2022-09-16T05:31:47.430Z,15.77
2022-09-16T05:34:18.528Z,15.45
2022-09-16T05:36:48.872Z,15.06
2022-09-16T05:39:23.307Z,15.05
2022-09-16T05:41:56.558Z,15.75
2022-09-16T05:44:27.343Z,16.60
2022-09-16T05:46:56.289Z,16.34
2022-09-16T05:49:24.785Z,16.41
2022-09-16T05:51:54.194Z,15.20
2022-09-16T05:54:25.239Z,15.42
2022-09-16T05:56:53.787Z,15.73
2022-09-16T05:59:23.559Z,15.72
2022-09-16T06:01:53.430Z,15.29
2022-09-16T06:04:21.737Z,15.34
2022-09-16T06:06:49.972Z,15.81
2022-09-16T06:09:20.568Z,15.03
2022-09-16T06:11:50.618Z,14.95
2022-09-16T06:14:22.661Z,15.07
2022-09-16T06:16:52.290Z,16.18
2022-09-16T06:19:20.663Z,15.63
2022-09-16T06:21:49.755Z,15.45
2022-09-16T06:24:20.159Z,15.25
2022-09-16T06:26:49.463Z,16.17
2022-09-16T06:29:18.794Z,15.27
2022-09-16T06:31:47.043Z,15.93
2022-09-16T06:34:19.423Z,16.19
2022-09-16T06:36:48.328Z,15.61
2022-09-16T06:39:18.324Z,15.91
2022-09-16T06:41:46.879Z,15.23
2022-09-16T06:44:15.367Z,15.98
2022-09-16T06:46:44.262Z,15.91
2022-09-16T06:49:13.159Z,15.78
2022-09-16T06:51:43.638Z,16.34
2022-09-16T06:54:12.759Z,16.92
2022-09-16T06:56:41.641Z,16.40
2022-09-16T06:59:11.065Z,16.47
2022-09-16T07:01:39.436Z,16.24
2022-09-16T07:04:13.182Z,16.78
2022-09-16T07:07:08.014Z,16.27
2022-09-16T07:09:32.503Z,16.62
2022-09-16T07:12:01.197Z,17.28
2022-09-16T07:14:32.578Z,17.83
2022-09-16T07:17:01.590Z,17.01
2022-09-16T07:19:30.273Z,16.47
2022-09-16T07:22:00.165Z,16.77
2022-09-16T07:24:28.969Z,16.59
2022-09-16T07:26:57.484Z,17.68
2022-09-16T07:29:25.983Z,18.84
2022-09-16T07:31:54.314Z,19.01
2022-09-16T07:34:22.554Z,17.65
2022-09-16T07:36:51.929Z,18.75
2022-09-16T07:39:22.360Z,19.72
2022-09-16T07:41:50.682Z,18.55
2022-09-16T07:44:21.600Z,18.74
2022-09-16T07:46:51.489Z,18.68
2022-09-16T07:49:20.215Z,19.00
2022-09-16T07:51:49.136Z,19.37
2022-09-16T07:54:19.877Z,19.04
2022-09-16T07:56:49.557Z,19.46
2022-09-16T07:59:20.512Z,20.46
2022-09-16T08:01:50.853Z,21.17
2022-09-16T08:04:21.180Z,19.67
2022-09-16T08:06:49.897Z,19.94
2022-09-16T08:12:10.867Z,19.60
2022-09-16T08:14:39.475Z,20.45
2022-09-16T08:17:08.084Z,19.97
2022-09-16T08:19:38.424Z,20.00
2022-09-16T08:22:06.932Z,20.44
2022-09-16T08:24:35.174Z,20.00
2022-09-16T08:27:03.443Z,20.17
2022-09-16T08:29:33.296Z,19.47
2022-09-16T08:32:01.576Z,20.06
2022-09-16T08:34:29.783Z,18.83
2022-09-16T08:36:58.392Z,19.54
2022-09-16T08:39:26.922Z,18.32
2022-09-16T08:42:30.368Z,19.23
2022-09-16T08:45:11.201Z,19.13
2022-09-16T08:47:54.638Z,19.78
2022-09-16T08:50:29.592Z,20.19
2022-09-16T08:53:00.969Z,19.85
2022-09-16T08:55:33.962Z,19.91
2022-09-16T08:58:06.031Z,20.35
2022-09-16T09:00:35.808Z,20.40
2022-09-16T09:03:18.291Z,19.71
2022-09-16T09:05:53.675Z,20.09
2022-09-16T09:08:34.121Z,20.35
2022-09-16T09:11:11.572Z,20.31
2022-09-16T09:13:56.057Z,19.05
2022-09-16T09:16:38.769Z,20.38
2022-09-16T09:19:23.912Z,18.89
2022-09-16T09:22:00.691Z,20.08
2022-09-16T09:24:59.260Z,20.89
2022-09-16T09:27:32.702Z,19.08
2022-09-16T09:30:11.728Z,17.89
2022-09-16T09:33:04.535Z,18.08
2022-09-16T09:35:53.098Z,18.23
2022-09-16T09:38:44.362Z,18.15
2022-09-16T09:41:17.714Z,19.58
2022-09-16T09:43:54.504Z,19.19
2022-09-16T09:46:31.540Z,19.00
2022-09-16T09:49:10.090Z,18.54
2022-09-16T09:51:44.615Z,18.00
2022-09-16T09:54:27.802Z,18.74
2022-09-16T09:57:00.965Z,18.92
2022-09-16T09:59:39.463Z,18.61
2022-09-16T10:02:18.072Z,19.06
2022-09-16T10:04:48.260Z,19.65
2022-09-16T10:07:21.115Z,19.21
2022-09-16T10:09:56.620Z,19.93
2022-09-16T10:12:31.642Z,20.71
2022-09-16T10:15:00.686Z,20.71
2022-09-16T10:17:32.367Z,19.94
2022-09-16T10:20:06.080Z,19.51
2022-09-16T10:22:36.335Z,19.64
2022-09-16T10:25:08.134Z,19.54
2022-09-16T10:27:39.127Z,19.98
2022-09-16T10:30:15.207Z,20.34
2022-09-16T10:32:55.250Z,20.37
2022-09-16T10:35:27.682Z,19.48
2022-09-16T10:37:58.643Z,20.05
2022-09-16T10:40:28.126Z,20.68
2022-09-16T10:43:02.899Z,19.74
2022-09-16T10:45:35.289Z,18.75
2022-09-16T10:48:08.320Z,18.41
2022-09-16T10:50:37.943Z,17.93
2022-09-16T10:53:24.519Z,18.58
2022-09-16T10:55:59.882Z,18.26
2022-09-16T10:58:28.406Z,18.05
2022-09-16T11:01:19.716Z,18.13
2022-09-16T11:04:20.230Z,17.80
2022-09-16T11:07:07.879Z,18.04
2022-09-16T11:09:46.701Z,18.87
2022-09-16T11:12:51.553Z,18.99
2022-09-16T11:15:35.650Z,18.36
2022-09-16T11:18:21.680Z,17.98
2022-09-16T11:21:21.679Z,18.30
2022-09-16T11:24:21.481Z,16.65
2022-09-16T11:27:00.544Z,15.21
2022-09-16T11:29:58.775Z,16.01
2022-09-16T11:32:44.646Z,15.92
2022-09-16T11:35:45.369Z,17.50
2022-09-16T11:38:25.051Z,18.11
2022-09-16T11:41:14.663Z,18.34
2022-09-16T11:44:00.977Z,18.38
2022-09-16T11:46:39.410Z,18.66
2022-09-16T11:49:34.150Z,18.79
2022-09-16T11:52:26.828Z,18.86
2022-09-16T11:55:28.561Z,18.96
2022-09-16T11:58:03.360Z,19.10
2022-09-16T12:00:35.101Z,19.22
2022-09-16T12:03:11.613Z,17.82
2022-09-16T12:05:50.151Z,18.81
2022-09-16T12:08:24.654Z,18.97
2022-09-16T12:10:56.769Z,18.80
2022-09-16T12:13:31.137Z,17.46
2022-09-16T12:16:05.377Z,17.98
2022-09-16T12:18:42.953Z,17.34
2022-09-16T12:21:17.528Z,17.20
2022-09-16T12:23:51.501Z,17.27
2022-09-16T12:26:22.872Z,17.32
2022-09-16T12:28:58.523Z,17.03
2022-09-16T12:31:34.978Z,17.19
2022-09-16T12:34:11.877Z,17.41
2022-09-16T12:36:44.972Z,17.35
2022-09-16T12:39:13.716Z,17.47
2022-09-16T12:42:10.948Z,17.14
2022-09-16T12:45:14.765Z,17.00
2022-09-16T12:48:29.745Z,17.85
2022-09-16T12:51:28.806Z,17.99
2022-09-16T12:54:32.080Z,17.39
2022-09-16T12:57:37.654Z,17.46
2022-09-16T13:00:22.093Z,18.34
2022-09-16T13:02:55.258Z,17.84
2022-09-16T13:05:33.066Z,17.11
2022-09-16T13:08:06.255Z,17.34
2022-09-16T13:10:55.799Z,16.47
2022-09-16T13:13:34.515Z,17.02
2022-09-16T13:16:07.797Z,18.19
2022-09-16T13:18:46.949Z,17.66
2022-09-16T13:21:27.933Z,17.47
2022-09-16T13:24:07.390Z,17.24
2022-09-16T13:26:44.003Z,17.80
2022-09-16T13:29:44.245Z,17.59
2022-09-16T13:32:40.077Z,17.29
2022-09-16T13:35:35.634Z,17.59
2022-09-16T13:38:24.941Z,16.96
2022-09-16T13:41:01.380Z,16.58
2022-09-16T13:43:37.101Z,16.59
2022-09-16T13:46:10.444Z,17.85
2022-09-16T13:48:50.286Z,17.72
2022-09-16T13:51:21.661Z,17.65
2022-09-16T13:53:53.161Z,17.91
2022-09-16T13:56:43.985Z,17.88
2022-09-16T13:59:29.340Z,18.38
2022-09-16T14:02:16.852Z,17.00
2022-09-16T14:05:10.810Z,16.92
2022-09-16T14:07:49.503Z,17.16
2022-09-16T14:10:26.525Z,16.82
2022-09-16T14:13:13.015Z,17.54
2022-09-16T14:15:45.526Z,17.09
2022-09-16T14:18:17.921Z,17.16
2022-09-16T14:21:01.509Z,17.33
2022-09-16T14:23:31.483Z,17.59
2022-09-16T14:26:10.616Z,17.29
2022-09-16T14:28:39.526Z,17.44
2022-09-16T14:31:13.955Z,17.07
2022-09-16T14:33:45.503Z,17.68
2022-09-16T14:36:20.846Z,17.63
2022-09-16T14:38:58.156Z,17.96
2022-09-16T14:41:33.741Z,18.11
2022-09-16T14:44:11.185Z,17.92
2022-09-16T14:46:45.213Z,17.88
2022-09-16T14:49:14.686Z,18.14
2022-09-16T14:51:49.165Z,17.82
2022-09-16T14:54:19.554Z,18.18
2022-09-16T14:56:59.577Z,18.01
2022-09-16T14:59:32.401Z,17.19
2022-09-16T15:02:07.684Z,17.24
2022-09-16T15:04:40.086Z,17.76
2022-09-16T15:07:15.089Z,18.45
2022-09-16T15:09:48.951Z,17.63
2022-09-16T15:12:26.907Z,18.29
2022-09-16T15:14:55.277Z,17.96
2022-09-16T15:17:28.480Z,17.59
2022-09-16T15:20:00.418Z,17.57
2022-09-16T15:22:30.176Z,17.62
2022-09-16T15:25:00.326Z,17.66
2022-09-16T15:27:32.357Z,17.70
2022-09-16T15:30:05.574Z,17.55
2022-09-16T15:32:43.769Z,18.16
2022-09-16T15:35:23.767Z,17.90
2022-09-16T15:37:54.509Z,18.16
2022-09-16T15:40:40.728Z,17.88
2022-09-16T15:43:19.536Z,17.25
2022-09-16T15:46:00.407Z,17.43
2022-09-16T15:48:35.013Z,17.36
2022-09-16T15:51:09.136Z,16.95
2022-09-16T15:53:44.445Z,16.79
2022-09-16T15:56:25.851Z,17.30
2022-09-16T15:58:59.008Z,16.57
2022-09-16T16:01:52.534Z,17.04
2022-09-16T16:04:28.837Z,17.25
2022-09-16T16:06:59.494Z,17.00
2022-09-16T16:09:37.832Z,16.40
2022-09-16T16:12:10.298Z,16.43
2022-09-16T16:14:40.336Z,16.35
2022-09-16T16:17:14.621Z,16.23
2022-09-16T16:19:44.265Z,16.54
2022-09-16T16:22:12.830Z,17.11
2022-09-16T16:24:42.728Z,16.65
2022-09-16T16:27:11.411Z,16.79
2022-09-16T16:29:39.634Z,16.78
2022-09-16T16:32:11.412Z,17.57
2022-09-16T16:34:41.500Z,17.26
2022-09-16T16:37:27.990Z,16.56
2022-09-16T16:40:01.758Z,16.92
2022-09-16T16:42:30.096Z,16.75
2022-09-16T16:44:58.429Z,17.07
2022-09-16T16:47:26.761Z,16.72
2022-09-16T16:49:54.992Z,16.26
2022-09-16T16:52:23.248Z,16.81
2022-09-16T16:54:51.845Z,17.03
2022-09-16T16:57:21.560Z,16.53
2022-09-16T16:59:49.782Z,16.66
2022-09-16T17:02:18.090Z,16.87
2022-09-16T17:04:46.354Z,17.00
2022-09-16T17:07:25.612Z,17.14
2022-09-16T17:09:54.553Z,17.34
2022-09-16T17:12:24.218Z,16.95
2022-09-16T17:14:52.444Z,16.98
2022-09-16T17:17:20.725Z,16.72
2022-09-16T17:19:49.002Z,16.21
2022-09-16T17:22:17.338Z,16.32
2022-09-16T17:24:45.576Z,17.08
2022-09-16T17:27:15.091Z,16.30
2022-09-16T17:29:44.682Z,16.72
2022-09-16T17:32:12.929Z,16.90
2022-09-16T17:34:41.557Z,15.52
2022-09-16T17:37:09.852Z,15.83
2022-09-16T17:39:38.352Z,15.71
2022-09-16T17:42:07.073Z,15.81
2022-09-16T17:44:35.287Z,15.71
2022-09-16T17:47:04.991Z,15.99
2022-09-16T17:49:33.497Z,15.68
2022-09-16T17:52:01.784Z,15.89
2022-09-16T17:54:30.492Z,15.92
2022-09-16T17:56:59.016Z,16.26
2022-09-16T17:59:27.571Z,16.68
2022-09-16T18:01:56.088Z,16.26
2022-09-16T18:04:26.133Z,16.30
2022-09-16T18:06:54.748Z,15.72
2022-09-16T18:09:23.359Z,16.31
2022-09-16T18:11:51.974Z,16.07
2022-09-16T18:14:23.471Z,15.44
2022-09-16T18:16:52.518Z,15.53
2022-09-16T18:19:21.222Z,14.52
2022-09-16T18:21:51.108Z,15.87
2022-09-16T18:24:20.065Z,15.31
2022-09-16T18:26:49.464Z,14.87
2022-09-16T18:29:18.029Z,14.99
2022-09-16T18:31:48.229Z,15.30
2022-09-16T18:34:18.048Z,15.87
2022-09-16T18:36:46.681Z,15.96
2022-09-16T18:39:18.305Z,15.52
2022-09-16T18:41:47.839Z,15.50
2022-09-16T18:44:19.633Z,15.30
2022-09-16T18:46:48.825Z,15.25
2022-09-16T18:49:20.089Z,15.21
2022-09-16T18:51:51.747Z,14.91
2022-09-16T18:54:27.925Z,14.96
2022-09-16T18:56:57.211Z,15.55
2022-09-16T18:59:28.380Z,15.43
2022-09-16T19:01:59.232Z,15.63
2022-09-16T19:04:30.001Z,15.09
2022-09-16T19:07:06.008Z,14.84
2022-09-16T19:09:38.227Z,14.70
2022-09-16T19:12:07.039Z,14.79
2022-09-16T19:14:35.579Z,14.81
2022-09-16T19:17:04.597Z,15.39
2022-09-16T19:19:33.324Z,15.01
2022-09-16T19:22:05.542Z,14.98
2022-09-16T19:24:37.228Z,14.77
2022-09-16T19:27:05.932Z,15.72
2022-09-16T19:29:34.471Z,14.98
2022-09-16T19:32:03.233Z,13.95
2022-09-16T19:34:32.011Z,14.46
2022-09-16T19:37:00.647Z,14.50
2022-09-16T19:39:29.235Z,14.70
2022-09-16T19:42:03.506Z,15.02
2022-09-16T19:44:32.155Z,14.98
2022-09-16T19:47:01.437Z,14.43
2022-09-16T19:49:30.395Z,14.83
2022-09-16T19:51:58.920Z,14.42
2022-09-16T19:54:27.417Z,14.24
2022-09-16T19:56:55.986Z,14.21
2022-09-16T19:59:25.566Z,15.02
2022-09-16T20:01:53.944Z,14.49
2022-09-16T20:04:22.312Z,14.68
2022-09-16T20:06:50.952Z,14.80
2022-09-16T20:09:19.989Z,14.67
2022-09-16T20:11:49.746Z,14.81
2022-09-16T20:14:21.275Z,14.30
2022-09-16T20:16:52.251Z,14.20
2022-09-16T20:19:22.243Z,14.85
2022-09-16T20:21:50.660Z,14.88
2022-09-16T20:24:21.562Z,14.39
2022-09-16T20:26:51.170Z,13.93
2022-09-16T20:29:20.829Z,13.72
2022-09-16T20:31:52.618Z,14.61
2022-09-16T20:34:24.143Z,15.08
2022-09-16T20:36:52.879Z,14.19
2022-09-16T20:39:22.213Z,14.52
2022-09-16T20:41:52.690Z,14.09
2022-09-16T20:44:21.111Z,14.82
2022-09-16T20:46:50.134Z,14.49
2022-09-16T20:49:23.023Z,14.06
2022-09-16T20:51:51.849Z,13.94
2022-09-16T20:54:20.085Z,13.94
2022-09-16T20:56:49.602Z,14.79
2022-09-16T20:59:20.030Z,13.72
2022-09-16T21:01:49.871Z,13.66
2022-09-16T21:04:21.752Z,14.08
2022-09-16T21:06:50.144Z,14.11
2022-09-16T21:09:19.463Z,14.00
2022-09-16T21:11:49.578Z,14.48
2022-09-16T21:14:21.546Z,14.41
2022-09-16T21:16:51.655Z,14.10
2022-09-16T21:19:21.312Z,13.36
2022-09-16T21:21:49.544Z,13.38
2022-09-16T21:24:18.792Z,13.82
2022-09-16T21:26:47.436Z,13.47
2022-09-16T21:29:21.143Z,14.58
2022-09-16T21:31:50.230Z,14.67
2022-09-16T21:34:22.708Z,13.91
2022-09-16T21:36:51.953Z,14.73
2022-09-16T21:39:21.884Z,14.54
2022-09-16T21:41:50.263Z,13.85
2022-09-16T21:44:19.209Z,14.48
2022-09-16T21:46:49.616Z,14.39
2022-09-16T21:49:24.161Z,14.56
2022-09-16T21:51:56.349Z,14.48
2022-09-16T21:54:25.732Z,14.63
2022-09-16T21:56:54.346Z,13.54
2022-09-16T21:59:23.617Z,14.35
2022-09-16T22:01:52.908Z,14.48
2022-09-16T22:04:23.256Z,14.10
2022-09-16T22:06:55.581Z,15.15
2022-09-16T22:09:24.369Z,14.28
2022-09-16T22:11:52.739Z,13.42
2022-09-16T22:14:21.060Z,13.79
2022-09-16T22:16:49.394Z,14.15
2022-09-16T22:19:19.636Z,13.99
2022-09-16T22:21:50.277Z,14.55
2022-09-16T22:24:21.509Z,13.92
2022-09-16T22:26:51.615Z,13.88
2022-09-16T22:29:20.090Z,13.57
2022-09-16T22:31:48.686Z,14.05
2022-09-16T22:34:17.069Z,13.93
2022-09-16T22:36:45.556Z,14.30
2022-09-16T22:39:16.847Z,14.25
2022-09-16T22:41:47.125Z,13.52
2022-09-16T22:44:15.526Z,14.69
2022-09-16T22:46:46.369Z,14.47
2022-09-16T22:49:16.120Z,13.81
2022-09-16T22:51:44.828Z,13.81
2022-09-16T22:54:14.634Z,14.10
2022-09-16T22:56:45.209Z,14.13
2022-09-16T22:59:18.723Z,13.85
2022-09-16T23:01:47.365Z,13.80
2022-09-16T23:04:16.017Z,13.99
2022-09-16T23:06:44.436Z,14.53
2022-09-16T23:09:14.301Z,14.30
2022-09-16T23:11:43.142Z,14.72
2022-09-16T23:14:15.651Z,13.97
2022-09-16T23:16:44.079Z,14.12
2022-09-16T23:19:13.176Z,14.63
2022-09-16T23:21:42.279Z,13.93
2022-09-16T23:24:16.148Z,13.42
2022-09-16T23:26:44.858Z,13.11
2022-09-16T23:29:16.376Z,13.97
2022-09-16T23:31:45.929Z,13.13
2022-09-16T23:34:19.027Z,14.18
2022-09-16T23:36:48.157Z,14.11
2022-09-16T23:39:17.765Z,13.91
2022-09-16T23:41:46.651Z,14.14
2022-09-16T23:44:17.154Z,13.87
2022-09-16T23:46:45.857Z,13.50
2022-09-16T23:49:16.957Z,13.48
2022-09-16T23:51:45.312Z,13.85
2022-09-16T23:54:13.934Z,14.12
2022-09-16T23:56:43.489Z,14.22
2022-09-16T23:59:11.912Z,13.78
